Time;durP1;ratioP1;P1;durP2;ratioP2;P2;SDS_P1;SDS_P2;PMS_P1;PMS_P2;Temp;Humidity;BMP_temperature;BMP_pressure;BME280_temperature;BME280_humidity;BME280_pressure;Samples;Min_cycle;Max_cycle;Signal;HPM_P1;HPM_P2
2020/02/25 00:00:18;;;;;;;5;3.2;;;;;;;;;;;;;
2020/02/25 00:02:43;;;;;;;5.7;2.7;;;;;;;;;;;;;
2020/02/25 00:05:09;;;;;;;7.8;4.3;;;;;;;;;;;;;
2020/02/25 00:07:34;;;;;;;5.6;3.5;;;;;;;;;;;;;
2020/02/25 00:09:59;;;;;;;5.6;3.8;;;;;;;;;;;;;
2020/02/25 00:12:24;;;;;;;7.4;4.2;;;;;;;;;;;;;
2020/02/25 00:14:49;;;;;;;7.6;4;;;;;;;;;;;;;
2020/02/25 00:17:14;;;;;;;10.2;5.2;;;;;;;;;;;;;
2020/02/25 00:19:39;;;;;;;10.6;4.4;;;;;;;;;;;;;
2020/02/25 00:22:05;;;;;;;8.7;4.9;;;;;;;;;;;;;
2020/02/25 00:26:57;;;;;;;8.2;4.7;;;;;;;;;;;;;
2020/02/25 00:29:20;;;;;;;7.6;4.1;;;;;;;;;;;;;
2020/02/25 00:31:45;;;;;;;7.2;3.9;;;;;;;;;;;;;
2020/02/25 00:34:10;;;;;;;7.2;4.1;;;;;;;;;;;;;
2020/02/25 00:36:35;;;;;;;6;3.7;;;;;;;;;;;;;
2020/02/25 00:39:00;;;;;;;8.3;4.1;;;;;;;;;;;;;
2020/02/25 00:41:25;;;;;;;7.8;4.2;;;;;;;;;;;;;
2020/02/25 00:43:51;;;;;;;10.1;4.8;;;;;;;;;;;;;
2020/02/25 00:46:16;;;;;;;10.7;5.5;;;;;;;;;;;;;
2020/02/25 00:48:41;;;;;;;11.1;5.4;;;;;;;;;;;;;
2020/02/25 00:51:06;;;;;;;4.5;2.9;;;;;;;;;;;;;
2020/02/25 00:53:31;;;;;;;4.9;3.1;;;;;;;;;;;;;
2020/02/25 00:55:56;;;;;;;4.3;2.8;;;;;;;;;;;;;
2020/02/25 00:58:21;;;;;;;6.3;3.4;;;;;;;;;;;;;
2020/02/25 01:02:45;;;;;;;8.4;5;;;;;;;;;;;;;
2020/02/25 01:05:11;;;;;;;7.8;3.1;;;;;;;;;;;;;
2020/02/25 01:07:36;;;;;;;6.4;3.4;;;;;;;;;;;;;
2020/02/25 01:10:01;;;;;;;4.6;2.9;;;;;;;;;;;;;
2020/02/25 01:12:26;;;;;;;4.8;2.4;;;;;;;;;;;;;
2020/02/25 01:15:09;;;;;;;4.3;3;;;;;;;;;;;;;
2020/02/25 01:17:16;;;;;;;3.3;2.3;;;;;;;;;;;;;
2020/02/25 01:19:41;;;;;;;3.9;2.4;;;;;;;;;;;;;
2020/02/25 01:22:06;;;;;;;4.9;2.8;;;;;;;;;;;;;
2020/02/25 01:26:22;;;;;;;4.9;2.7;;;;;;;;;;;;;
2020/02/25 01:26:56;;;;;;;5;2.5;;;;;;;;;;;;;
2020/02/25 01:29:22;;;;;;;4.5;2.3;;;;;;;;;;;;;
2020/02/25 01:31:47;;;;;;;3.9;2.3;;;;;;;;;;;;;
2020/02/25 01:34:12;;;;;;;3.9;2.8;;;;;;;;;;;;;
2020/02/25 01:36:37;;;;;;;4.5;2.9;;;;;;;;;;;;;
2020/02/25 01:39:02;;;;;;;4;2.7;;;;;;;;;;;;;
2020/02/25 01:41:27;;;;;;;3.9;2.7;;;;;;;;;;;;;
2020/02/25 01:43:52;;;;;;;4.3;2.8;;;;;;;;;;;;;
2020/02/25 01:46:17;;;;;;;4.6;2.8;;;;;;;;;;;;;
2020/02/25 01:48:43;;;;;;;4;2.8;;;;;;;;;;;;;
2020/02/25 01:51:08;;;;;;;4.4;2.8;;;;;;;;;;;;;
2020/02/25 01:53:33;;;;;;;2.9;2.6;;;;;;;;;;;;;
2020/02/25 01:55:58;;;;;;;4.2;2.7;;;;;;;;;;;;;
2020/02/25 01:58:24;;;;;;;3.7;2.6;;;;;;;;;;;;;
2020/02/25 02:01:02;;;;;;;3.5;2.7;;;;;;;;;;;;;
2020/02/25 02:03:27;;;;;;;3;2.3;;;;;;;;;;;;;
2020/02/25 02:05:52;;;;;;;3.3;2.4;;;;;;;;;;;;;
2020/02/25 02:08:17;;;;;;;2.6;2;;;;;;;;;;;;;
2020/02/25 02:10:42;;;;;;;3.6;2.7;;;;;;;;;;;;;
2020/02/25 02:13:08;;;;;;;3.8;2.5;;;;;;;;;;;;;
2020/02/25 02:15:33;;;;;;;4.4;2.5;;;;;;;;;;;;;
2020/02/25 02:17:58;;;;;;;4.6;2.2;;;;;;;;;;;;;
2020/02/25 02:20:23;;;;;;;2.9;2.5;;;;;;;;;;;;;
2020/02/25 02:22:48;;;;;;;4.2;2.4;;;;;;;;;;;;;
2020/02/25 02:25:14;;;;;;;3.4;2.4;;;;;;;;;;;;;
2020/02/25 02:27:39;;;;;;;6.6;2.6;;;;;;;;;;;;;
2020/02/25 02:30:04;;;;;;;3.5;2.3;;;;;;;;;;;;;
2020/02/25 02:32:29;;;;;;;4.4;2.4;;;;;;;;;;;;;
2020/02/25 02:34:54;;;;;;;3.2;2.1;;;;;;;;;;;;;
2020/02/25 02:37:19;;;;;;;2.9;1.9;;;;;;;;;;;;;
2020/02/25 02:39:45;;;;;;;4.4;1.9;;;;;;;;;;;;;
2020/02/25 02:42:10;;;;;;;2.8;1.9;;;;;;;;;;;;;
2020/02/25 02:44:35;;;;;;;3.1;1.8;;;;;;;;;;;;;
2020/02/25 02:47:00;;;;;;;2.2;1.5;;;;;;;;;;;;;
2020/02/25 02:49:25;;;;;;;2.2;1.7;;;;;;;;;;;;;
2020/02/25 02:51:50;;;;;;;3.2;1.9;;;;;;;;;;;;;
2020/02/25 02:54:15;;;;;;;2.3;1.6;;;;;;;;;;;;;
2020/02/25 02:56:40;;;;;;;3.8;2.3;;;;;;;;;;;;;
2020/02/25 02:59:05;;;;;;;4.3;2.4;;;;;;;;;;;;;
2020/02/25 03:01:31;;;;;;;3.3;2.5;;;;;;;;;;;;;
2020/02/25 03:03:56;;;;;;;3.8;2.3;;;;;;;;;;;;;
2020/02/25 03:06:21;;;;;;;5.2;2.6;;;;;;;;;;;;;
2020/02/25 03:08:46;;;;;;;4.4;2.4;;;;;;;;;;;;;
2020/02/25 03:11:11;;;;;;;4.5;2.2;;;;;;;;;;;;;
2020/02/25 03:13:36;;;;;;;3.4;2.3;;;;;;;;;;;;;
2020/02/25 03:16:01;;;;;;;3.5;2.1;;;;;;;;;;;;;
2020/02/25 03:18:26;;;;;;;3.2;2.2;;;;;;;;;;;;;
2020/02/25 03:20:52;;;;;;;3.2;1.9;;;;;;;;;;;;;
2020/02/25 03:23:17;;;;;;;3;2;;;;;;;;;;;;;
2020/02/25 03:25:42;;;;;;;3.4;1.8;;;;;;;;;;;;;
2020/02/25 03:28:07;;;;;;;3.1;2;;;;;;;;;;;;;
2020/02/25 03:30:32;;;;;;;3.4;2;;;;;;;;;;;;;
2020/02/25 03:32:57;;;;;;;4.2;2.2;;;;;;;;;;;;;
2020/02/25 03:35:22;;;;;;;3.9;2.2;;;;;;;;;;;;;
2020/02/25 03:37:48;;;;;;;4.9;2.5;;;;;;;;;;;;;
2020/02/25 03:40:13;;;;;;;4.1;1.9;;;;;;;;;;;;;
2020/02/25 03:42:38;;;;;;;4.9;2;;;;;;;;;;;;;
2020/02/25 03:45:03;;;;;;;4.3;2.1;;;;;;;;;;;;;
2020/02/25 03:47:28;;;;;;;6.7;2.8;;;;;;;;;;;;;
2020/02/25 03:49:53;;;;;;;3.6;2.1;;;;;;;;;;;;;
2020/02/25 03:52:19;;;;;;;4.1;2.5;;;;;;;;;;;;;
2020/02/25 03:54:44;;;;;;;7.6;2.4;;;;;;;;;;;;;
2020/02/25 03:57:09;;;;;;;3.3;2;;;;;;;;;;;;;
2020/02/25 03:59:34;;;;;;;5.2;2.1;;;;;;;;;;;;;
2020/02/25 04:02:30;;;;;;;3.5;2.3;;;;;;;2.42;89.37891;930.1902;;;;
2020/02/25 04:04:55;;;;;;;3.8;2.1;;;;;;;2.17;91.06348;930.1468;;;;
2020/02/25 04:07:20;;;;;;;3.9;2.3;;;;;;;2.24;91.23535;930.1169;;;;
2020/02/25 04:09:45;;;;;;;3.3;2.2;;;;;;;2.17;91.72461;930.1241;;;;
2020/02/25 04:12:10;;;;;;;3;2.3;;;;;;;2.17;91.84766;930.0808;;;;
2020/02/25 04:14:35;;;;;;;2.9;2.3;;;;;;;2.2;91.89746;930.0432;;;;
2020/02/25 04:17:01;;;;;;;3.2;2.3;;;;;;;2.27;91.2998;930.0714;;;;
2020/02/25 04:19:26;;;;;;;3.2;2.2;;;;;;;2.42;90.70117;930.0881;;;;
2020/02/25 04:21:51;;;;;;;5.3;2.6;;;;;;;2.46;90.09473;930.1497;;;;
2020/02/25 04:24:16;;;;;;;4.6;2.5;;;;;;;2.55;89.61914;930.1551;;;;
2020/02/25 04:26:41;;;;;;;6.5;2.7;;;;;;;2.65;88.8125;930.1077;;;;
2020/02/25 04:29:06;;;;;;;3.4;2;;;;;;;2.53;89.91797;930.0901;;;;
2020/02/25 04:31:31;;;;;;;3.7;1.9;;;;;;;2.61;89.81348;930.1192;;;;
2020/02/25 04:33:56;;;;;;;2.8;2;;;;;;;2.57;90.18457;930.1188;;;;
2020/02/25 04:36:21;;;;;;;3.6;2.1;;;;;;;2.48;90.47949;930.1934;;;;
2020/02/25 04:38:47;;;;;;;2.5;2;;;;;;;2.37;90.79102;930.1603;;;;
2020/02/25 04:41:12;;;;;;;2.4;2.2;;;;;;;2.25;91.66309;930.1462;;;;
2020/02/25 04:43:37;;;;;;;3.1;2;;;;;;;2.18;91.88281;930.1439;;;;
2020/02/25 04:46:02;;;;;;;5.7;2.1;;;;;;;2.35;91.72949;930.134;;;;
2020/02/25 04:48:27;;;;;;;2.7;2;;;;;;;2.55;90.75488;930.2063;;;;
2020/02/25 04:50:52;;;;;;;3.4;2.1;;;;;;;2.52;90.49805;930.1605;;;;
2020/02/25 04:53:17;;;;;;;3.3;2;;;;;;;2.46;90.75586;930.104;;;;
2020/02/25 04:55:42;;;;;;;2.5;1.8;;;;;;;2.36;90.87988;930.1443;;;;
2020/02/25 04:58:08;;;;;;;2;1.7;;;;;;;2.34;90.94336;930.1093;;;;
2020/02/25 05:00:33;;;;;;;3.6;2.2;;;;;;;2.33;90.80762;930.0164;;;;
2020/02/25 05:02:58;;;;;;;4.9;2.2;;;;;;;2.21;91.16309;929.9959;;;;
2020/02/25 05:05:24;;;;;;;4.5;3.1;;;;;;;2.26;91.22852;929.9258;;;;
2020/02/25 05:07:49;;;;;;;3.5;2.4;;;;;;;2.31;91.10352;929.9293;;;;
2020/02/25 05:10:14;;;;;;;5.5;2.6;;;;;;;2.4;90.7334;929.8591;;;;
2020/02/25 05:12:39;;;;;;;6.3;3.4;;;;;;;2.29;90.94531;929.7578;;;;
2020/02/25 05:15:04;;;;;;;4.7;2.7;;;;;;;2.21;91.47461;929.6794;;;;
2020/02/25 05:17:29;;;;;;;4;2.5;;;;;;;2.24;91.51367;929.7806;;;;
2020/02/25 05:19:54;;;;;;;5.1;2.3;;;;;;;2.39;91.24219;929.7523;;;;
2020/02/25 05:22:19;;;;;;;6.2;2.5;;;;;;;2.49;90.45898;929.7553;;;;
2020/02/25 05:24:44;;;;;;;3.8;2.2;;;;;;;2.36;91.13574;929.7374;;;;
2020/02/25 05:27:10;;;;;;;3;2.3;;;;;;;2.42;91.03906;929.7332;;;;
2020/02/25 05:29:34;;;;;;;4.7;2.4;;;;;;;2.37;90.73828;929.6994;;;;
2020/02/25 05:32:00;;;;;;;4.5;2.7;;;;;;;2.26;90.90332;929.6258;;;;
2020/02/25 05:34:25;;;;;;;5.1;2.6;;;;;;;2.23;91.3457;929.6462;;;;
2020/02/25 05:36:50;;;;;;;7;2.6;;;;;;;2.29;91.29004;929.5943;;;;
2020/02/25 05:39:15;;;;;;;4.7;2.5;;;;;;;2.36;91.22754;929.593;;;;
2020/02/25 05:41:40;;;;;;;4.7;2.3;;;;;;;2.51;90.7334;929.4872;;;;
2020/02/25 05:44:05;;;;;;;4.4;2.5;;;;;;;2.62;90.35156;929.5623;;;;
2020/02/25 05:46:30;;;;;;;3.9;2.2;;;;;;;2.66;90.06934;929.4579;;;;
2020/02/25 05:48:55;;;;;;;3.8;2.2;;;;;;;2.65;89.69824;929.4272;;;;
2020/02/25 05:51:21;;;;;;;4.5;2.4;;;;;;;2.74;89.22363;929.3869;;;;
2020/02/25 05:53:46;;;;;;;5;2.7;;;;;;;2.74;89.07813;929.3492;;;;
2020/02/25 05:56:11;;;;;;;4.8;2.7;;;;;;;2.91;88.66504;929.3315;;;;
2020/02/25 05:58:36;;;;;;;4.7;2.5;;;;;;;3.05;87.7959;929.3201;;;;
2020/02/25 06:01:01;;;;;;;4.2;2.3;;;;;;;3.09;87.35449;929.2776;;;;
2020/02/25 06:03:26;;;;;;;3.5;2.6;;;;;;;3.22;87.01172;929.3279;;;;
2020/02/25 06:05:51;;;;;;;5;2.4;;;;;;;3.34;86.42969;929.2464;;;;
2020/02/25 06:08:16;;;;;;;3.1;2;;;;;;;3.2;86.87305;929.3391;;;;
2020/02/25 06:10:42;;;;;;;5.2;2.1;;;;;;;3.3;86.91602;929.3337;;;;
2020/02/25 06:13:07;;;;;;;4.6;2.1;;;;;;;3.33;86.64258;929.2849;;;;
2020/02/25 06:15:32;;;;;;;9.8;2.6;;;;;;;3.4;86.70117;929.2611;;;;
2020/02/25 06:17:59;;;;;;;3.4;1.9;;;;;;;3.51;86.52051;929.2511;;;;
2020/02/25 06:20:24;;;;;;;10.3;2.5;;;;;;;3.54;86.36914;929.2548;;;;
2020/02/25 06:22:51;;;;;;;5.2;2.3;;;;;;;3.58;85.97363;929.226;;;;
2020/02/25 06:25:15;;;;;;;9.6;4.9;;;;;;;3.56;86.16113;929.1758;;;;
2020/02/25 06:27:42;;;;;;;7.9;5.4;;;;;;;3.48;86.48145;929.2592;;;;
2020/02/25 06:30:07;;;;;;;9.8;5.9;;;;;;;3.49;86.47363;929.2234;;;;
2020/02/25 06:32:32;;;;;;;7.8;5.5;;;;;;;3.56;86.56348;929.267;;;;
2020/02/25 06:34:58;;;;;;;8.6;5.2;;;;;;;3.6;88.21289;929.253;;;;
2020/02/25 06:37:23;;;;;;;9.6;5.1;;;;;;;3.58;87.53516;929.2668;;;;
2020/02/25 06:39:48;;;;;;;7.4;5.2;;;;;;;3.58;86.54688;929.2951;;;;
2020/02/25 06:42:13;;;;;;;8.7;5.4;;;;;;;3.47;86.86133;929.3086;;;;
2020/02/25 06:44:39;;;;;;;9.8;5.7;;;;;;;3.45;87.43066;929.3066;;;;
2020/02/25 06:47:04;;;;;;;9.6;6.1;;;;;;;3.54;87.39258;929.288;;;;
2020/02/25 06:49:29;;;;;;;9.5;4.9;;;;;;;3.64;86.56934;929.2942;;;;
2020/02/25 06:51:54;;;;;;;6.8;5;;;;;;;3.67;86.3291;929.3058;;;;
2020/02/25 06:54:19;;;;;;;8.6;4.9;;;;;;;3.48;87.05469;929.2906;;;;
2020/02/25 06:56:44;;;;;;;8.2;4.6;;;;;;;3.36;87.64551;929.2484;;;;
2020/02/25 06:59:09;;;;;;;8;4.4;;;;;;;3.55;87.31641;929.2717;;;;
2020/02/25 07:01:34;;;;;;;7.2;3.1;;;;;;;3.48;87.26758;929.2576;;;;
2020/02/25 07:03:59;;;;;;;4.9;2.3;;;;;;;3.5;87.43945;929.1685;;;;
2020/02/25 07:06:25;;;;;;;4.9;2.8;;;;;;;3.67;86.91309;929.2106;;;;
2020/02/25 07:08:49;;;;;;;5.7;2.2;;;;;;;3.93;85.93262;929.2555;;;;
2020/02/25 07:11:15;;;;;;;5.5;2.9;;;;;;;3.89;85.99219;929.2704;;;;
2020/02/25 07:13:40;;;;;;;7.2;2.7;;;;;;;4.08;85.06152;929.1923;;;;
2020/02/25 07:16:05;;;;;;;8.2;3.6;;;;;;;4.02;84.84863;929.1456;;;;
2020/02/25 07:21:43;;;;;;;10;4.7;;;;;;;3.92;85.72656;929.1945;;;;
2020/02/25 07:23:28;;;;;;;8.3;5;;;;;;;4.13;84.8584;929.1091;;;;
2020/02/25 07:26:34;;;;;;;13.9;5.7;;;;;;;4.13;85.00684;929.1028;;;;
2020/02/25 07:28:12;;;;;;;6.7;3.9;;;;;;;4.08;85.27539;929.0443;;;;
2020/02/25 07:30:37;;;;;;;5.8;3.4;;;;;;;4.03;85.67285;929.0002;;;;
2020/02/25 07:33:02;;;;;;;6;4;;;;;;;4.09;85.40137;928.9105;;;;
2020/02/25 07:35:27;;;;;;;63.1;56.6;;;;;;;4;86.46289;929.0362;;;;
2020/02/25 07:37:52;;;;;;;30.9;27.5;;;;;;;4.18;86.13867;928.9563;;;;
2020/02/25 07:40:17;;;;;;;131.4;118.9;;;;;;;4.35;85.26367;928.8959;;;;
2020/02/25 07:42:43;;;;;;;9.2;4.9;;;;;;;4.46;84.38281;928.8191;;;;
2020/02/25 07:45:08;;;;;;;10.2;5.6;;;;;;;4.47;84.37598;928.8375;;;;
2020/02/25 07:47:34;;;;;;;7.1;3.7;;;;;;;4.45;84.60645;928.853;;;;
2020/02/25 07:50:00;;;;;;;8;5.5;;;;;;;4.37;85.08594;928.8024;;;;
2020/02/25 07:52:25;;;;;;;7.6;6.8;;;;;;;4.03;86.52637;928.8851;;;;
2020/02/25 07:54:50;;;;;;;14.4;7.9;;;;;;;4.09;86.87598;928.8343;;;;
2020/02/25 07:57:15;;;;;;;10.1;6.9;;;;;;;4.22;86.44043;928.8535;;;;
2020/02/25 07:59:40;;;;;;;11.1;6.1;;;;;;;4.39;86.02539;928.8367;;;;
2020/02/25 08:02:06;;;;;;;9.9;5.9;;;;;;;4.44;85.97852;928.8369;;;;
2020/02/25 08:04:31;;;;;;;8.1;4.5;;;;;;;4.48;85.32129;928.7927;;;;
2020/02/25 08:06:56;;;;;;;11;4.8;;;;;;;4.32;86.54004;928.9228;;;;
2020/02/25 08:09:21;;;;;;;5.5;3.8;;;;;;;4.31;86.47949;928.8959;;;;
2020/02/25 08:11:46;;;;;;;10.4;6.1;;;;;;;4.52;86.0166;928.8911;;;;
2020/02/25 08:14:11;;;;;;;9.8;6;;;;;;;4.73;85.56348;928.8553;;;;
2020/02/25 08:16:37;;;;;;;7.9;4.1;;;;;;;4.71;85.32324;928.7928;;;;
2020/02/25 08:19:02;;;;;;;8;4.7;;;;;;;4.66;85.52637;928.795;;;;
2020/02/25 08:21:27;;;;;;;6.1;4.6;;;;;;;4.52;85.38672;928.8067;;;;
2020/02/25 08:23:52;;;;;;;7.1;4.6;;;;;;;4.65;85.18652;928.8194;;;;
2020/02/25 08:26:18;;;;;;;16.5;5.7;;;;;;;4.84;84.66113;928.6925;;;;
2020/02/25 08:28:43;;;;;;;9;6.1;;;;;;;4.79;84.13379;928.6804;;;;
2020/02/25 08:31:09;;;;;;;12.9;7.2;;;;;;;4.82;84.10742;928.5622;;;;
2020/02/25 08:33:35;;;;;;;10.4;6.8;;;;;;;5.06;84.0293;928.5406;;;;
2020/02/25 08:36:00;;;;;;;11.2;6.7;;;;;;;5;83.43262;928.4906;;;;
2020/02/25 08:38:26;;;;;;;12.3;5.1;;;;;;;5.02;83.56934;928.4028;;;;
2020/02/25 08:40:52;;;;;;;16.5;5.4;;;;;;;5.3;83.23145;928.399;;;;
2020/02/25 08:43:17;;;;;;;12.2;5.4;;;;;;;5.52;83.02344;928.4122;;;;
2020/02/25 08:45:42;;;;;;;11.3;6.1;;;;;;;5.59;82.53027;928.4398;;;;
2020/02/25 08:48:07;;;;;;;13.5;5.6;;;;;;;5.56;82.04102;928.4294;;;;
2020/02/25 08:50:33;;;;;;;14.1;7.5;;;;;;;5.67;83.01953;928.3265;;;;
2020/02/25 08:52:58;;;;;;;11.7;5.1;;;;;;;5.67;82.27441;928.3417;;;;
2020/02/25 08:55:23;;;;;;;15.5;5.1;;;;;;;5.72;82.68066;928.2151;;;;
2020/02/25 08:57:48;;;;;;;6.8;4.2;;;;;;;5.58;83.15039;928.3317;;;;
2020/02/25 09:00:13;;;;;;;10.4;4.7;;;;;;;5.46;84.15332;928.3823;;;;
2020/02/25 09:02:39;;;;;;;11.5;3.8;;;;;;;5.65;82.68848;928.2656;;;;
2020/02/25 09:05:04;;;;;;;6.2;4.3;;;;;;;5.83;82.14746;928.2545;;;;
2020/02/25 09:07:29;;;;;;;9.3;4.6;;;;;;;5.91;82.07324;928.2312;;;;
2020/02/25 09:09:55;;;;;;;9.8;4.3;;;;;;;6.03;82.33301;928.171;;;;
2020/02/25 09:12:20;;;;;;;11.7;5;;;;;;;6.3;81.24512;928.1225;;;;
2020/02/25 09:14:46;;;;;;;7.7;4.4;;;;;;;6.5;80.96582;928.0897;;;;
2020/02/25 09:17:11;;;;;;;23.1;20.8;;;;;;;6.62;81.00879;928.0497;;;;
2020/02/25 09:19:36;;;;;;;8;5.9;;;;;;;6.88;80.18652;927.968;;;;
2020/02/25 09:22:01;;;;;;;15.4;4.8;;;;;;;6.96;79.52441;927.9495;;;;
2020/02/25 09:24:33;;;;;;;7.1;3.8;;;;;;;6.87;78.56641;927.8547;;;;
2020/02/25 09:26:51;;;;;;;9.1;4.3;;;;;;;6.72;79.28516;927.8994;;;;
2020/02/25 09:29:16;;;;;;;17.4;14.3;;;;;;;6.81;79.24707;927.8686;;;;
2020/02/25 09:31:42;;;;;;;191.2;156.9;;;;;;;7.06;76.32617;927.8792;;;;
2020/02/25 09:34:08;;;;;;;7.8;4;;;;;;;7.06;75.49707;927.8118;;;;
2020/02/25 09:36:33;;;;;;;18.6;6.9;;;;;;;7.23;74.79102;927.6808;;;;
2020/02/25 09:38:58;;;;;;;7.2;3.7;;;;;;;7.54;75.27734;927.7369;;;;
2020/02/25 09:41:23;;;;;;;11.2;2.6;;;;;;;7.88;72.44336;927.7322;;;;
2020/02/25 09:43:49;;;;;;;7.2;2;;;;;;;8.06;69.64551;927.7859;;;;
2020/02/25 09:46:14;;;;;;;5.7;1.7;;;;;;;8.05;70.14551;927.7352;;;;
2020/02/25 09:48:39;;;;;;;4.7;2.2;;;;;;;8.18;69.38086;927.6727;;;;
2020/02/25 09:51:04;;;;;;;12.9;3.3;;;;;;;8.28;68.1377;927.5192;;;;
2020/02/25 09:53:29;;;;;;;5.4;3;;;;;;;8.11;66.6123;927.4927;;;;
2020/02/25 09:55:54;;;;;;;14.2;3.5;;;;;;;8.21;67.48926;927.5292;;;;
2020/02/25 09:58:19;;;;;;;6.7;2.9;;;;;;;8.36;64.84375;927.4434;;;;
2020/02/25 10:00:45;;;;;;;12.7;3.2;;;;;;;8.22;64.06055;927.4637;;;;
2020/02/25 10:03:11;;;;;;;4.8;2.6;;;;;;;8.31;63.50781;927.2917;;;;
2020/02/25 10:05:36;;;;;;;7.3;2.7;;;;;;;8.59;65.16309;927.308;;;;
2020/02/25 10:08:01;;;;;;;12.3;3.2;;;;;;;8.87;65.59082;927.2899;;;;
2020/02/25 10:10:26;;;;;;;12.1;3.4;;;;;;;9.11;66.49219;927.2808;;;;
2020/02/25 10:12:52;;;;;;;17;3.7;;;;;;;9.37;64.80176;927.188;;;;
2020/02/25 10:15:18;;;;;;;15.1;3.5;;;;;;;9.54;65.58008;927.2734;;;;
2020/02/25 10:17:43;;;;;;;6.2;2.8;;;;;;;9.55;64.3623;927.2065;;;;
2020/02/25 10:20:08;;;;;;;8.1;3.1;;;;;;;9.7;62.4707;927.1934;;;;
2020/02/25 10:22:33;;;;;;;14.5;3.6;;;;;;;9.73;62.25781;927.1757;;;;
2020/02/25 10:24:59;;;;;;;6.7;3.2;;;;;;;9.63;59.98633;927.1414;;;;
2020/02/25 10:27:24;;;;;;;14.2;4;;;;;;;9.82;60.64063;927.092;;;;
2020/02/25 10:29:49;;;;;;;58.3;8.3;;;;;;;9.9;61.6543;927.0891;;;;
2020/02/25 10:32:14;;;;;;;9.5;4.1;;;;;;;9.98;59.16895;927.0036;;;;
2020/02/25 10:34:39;;;;;;;18.2;4.8;;;;;;;10.14;61.43848;927.033;;;;
2020/02/25 10:37:05;;;;;;;12.5;5.7;;;;;;;10.12;63.61426;927.0339;;;;
2020/02/25 10:39:30;;;;;;;8.1;4.3;;;;;;;9.98;65.33887;926.9614;;;;
2020/02/25 10:41:55;;;;;;;11.8;5.4;;;;;;;10.04;63.37402;926.9805;;;;
2020/02/25 10:44:20;;;;;;;16.5;7.3;;;;;;;10.32;65.13867;926.994;;;;
2020/02/25 10:46:47;;;;;;;9.3;4.3;;;;;;;10.45;60.92285;926.8198;;;;
2020/02/25 10:49:12;;;;;;;17.4;4.3;;;;;;;9.98;61.23242;926.7515;;;;
2020/02/25 10:51:37;;;;;;;9.6;3.3;;;;;;;10.07;65.4209;926.7416;;;;
2020/02/25 10:54:02;;;;;;;9.3;2.7;;;;;;;10.18;59.44824;926.7502;;;;
2020/02/25 10:56:27;;;;;;;8.4;2.8;;;;;;;9.95;60.43066;926.692;;;;
2020/02/25 10:58:53;;;;;;;6;2.7;;;;;;;10.31;61.21191;926.6392;;;;
2020/02/25 11:01:18;;;;;;;6.9;2.8;;;;;;;10.7;59.97754;926.6728;;;;
2020/02/25 11:03:43;;;;;;;5.7;2.9;;;;;;;10.96;59.04199;926.5126;;;;
2020/02/25 11:06:08;;;;;;;6.8;3.2;;;;;;;11.26;59.92871;926.5313;;;;
2020/02/25 11:08:33;;;;;;;11.4;3.5;;;;;;;11.45;60.36621;926.4821;;;;
2020/02/25 11:10:59;;;;;;;12.1;4.1;;;;;;;11.64;57.38281;926.3794;;;;
2020/02/25 11:13:24;;;;;;;10.9;3.4;;;;;;;11.91;57.09668;926.4407;;;;
2020/02/25 11:15:49;;;;;;;9.9;3.2;;;;;;;12.29;56.19629;926.3139;;;;
2020/02/25 11:18:15;;;;;;;7.8;3;;;;;;;12.61;54.8252;926.3097;;;;
2020/02/25 11:20:40;;;;;;;6.5;3.2;;;;;;;12.83;54.85352;926.3119;;;;
2020/02/25 11:23:05;;;;;;;4.7;2.7;;;;;;;12.95;53.98535;926.2711;;;;
2020/02/25 11:25:30;;;;;;;5.1;2.5;;;;;;;13.15;53.6416;926.2748;;;;
2020/02/25 11:27:56;;;;;;;5.1;2.8;;;;;;;13.13;52.92871;926.3703;;;;
2020/02/25 11:30:21;;;;;;;16.1;3.7;;;;;;;13.4;50.94922;926.2551;;;;
2020/02/25 11:32:47;;;;;;;16.1;3;;;;;;;13.49;53.56934;926.2367;;;;
2020/02/25 11:35:12;;;;;;;7.6;3;;;;;;;13.62;52.10254;926.1262;;;;
2020/02/25 11:37:37;;;;;;;5.4;2.4;;;;;;;13.77;50.1875;926.1981;;;;
2020/02/25 11:40:02;;;;;;;32.7;4.1;;;;;;;13.72;50.71094;926.1273;;;;
2020/02/25 11:42:28;;;;;;;8.4;2.9;;;;;;;13.7;51.00781;926.1308;;;;
2020/02/25 11:44:53;;;;;;;7.9;2.6;;;;;;;13.58;50.66016;926.0452;;;;
2020/02/25 11:47:18;;;;;;;7.2;2.7;;;;;;;13.17;52.65625;925.9963;;;;
2020/02/25 11:49:43;;;;;;;7;2.6;;;;;;;13.31;52.76563;925.998;;;;
2020/02/25 11:52:09;;;;;;;7.7;2.4;;;;;;;13.74;51.16113;925.8764;;;;
2020/02/25 11:54:34;;;;;;;4.8;2.3;;;;;;;14.2;51.1582;925.8373;;;;
2020/02/25 11:56:59;;;;;;;7.8;2.5;;;;;;;14.52;49.50098;925.7894;;;;
2020/02/25 11:59:25;;;;;;;6;2.4;;;;;;;14.18;49.94629;925.7113;;;;
2020/02/25 12:01:50;;;;;;;6.5;1.7;;;;;;;14.25;49.82715;925.5346;;;;
2020/02/25 12:04:15;;;;;;;3;1.4;;;;;;;14.36;46.31641;925.5941;;;;
2020/02/25 12:06:40;;;;;;;1.8;1.4;;;;;;;14.23;47.22266;925.5894;;;;
2020/02/25 12:09:05;;;;;;;2.2;1.3;;;;;;;14.11;46.47363;925.5474;;;;
2020/02/25 12:11:30;;;;;;;2.8;1.5;;;;;;;14.2;47.16309;925.4426;;;;
2020/02/25 12:13:55;;;;;;;4.7;1.7;;;;;;;13.9;47.20996;925.4009;;;;
2020/02/25 12:16:20;;;;;;;4.7;1.7;;;;;;;13.82;48.52539;925.338;;;;
2020/02/25 12:18:45;;;;;;;2.8;1.6;;;;;;;13.44;47.63184;925.2439;;;;
2020/02/25 12:21:11;;;;;;;3.9;1.9;;;;;;;13.45;48.67969;925.2285;;;;
2020/02/25 12:23:36;;;;;;;4.4;1.8;;;;;;;13.68;47.87695;925.1203;;;;
2020/02/25 12:26:01;;;;;;;4.9;2.4;;;;;;;13.81;47.33887;925.2035;;;;
2020/02/25 12:28:26;;;;;;;7.4;2.4;;;;;;;13.85;45.69824;925.19;;;;
2020/02/25 12:30:51;;;;;;;7.7;2.3;;;;;;;14.07;46.37793;925.1866;;;;
2020/02/25 12:33:16;;;;;;;2.9;1.8;;;;;;;14.22;45.76074;925.0453;;;;
2020/02/25 12:35:41;;;;;;;4.8;2;;;;;;;14.03;49.37695;925.0883;;;;
2020/02/25 12:38:06;;;;;;;5.1;2.1;;;;;;;14.29;48.62402;925.0955;;;;
2020/02/25 12:40:31;;;;;;;3.8;2;;;;;;;14.55;47.14258;925.0508;;;;
2020/02/25 12:42:56;;;;;;;5.2;2.1;;;;;;;14.37;45.07324;924.9333;;;;
2020/02/25 12:45:21;;;;;;;7.8;2.1;;;;;;;14.36;45.30273;924.9224;;;;
2020/02/25 12:47:46;;;;;;;5.2;2.2;;;;;;;14.43;45.89746;924.7736;;;;
2020/02/25 12:50:12;;;;;;;4.1;2.2;;;;;;;14.75;45.74609;924.83;;;;
2020/02/25 12:52:37;;;;;;;5.3;2.1;;;;;;;15.03;44.40332;924.7786;;;;
2020/02/25 12:55:02;;;;;;;5.6;2.3;;;;;;;15.19;43.64648;924.7201;;;;
2020/02/25 12:57:27;;;;;;;4.5;2.3;;;;;;;15.28;43.94336;924.6559;;;;
2020/02/25 12:59:52;;;;;;;7.5;2.6;;;;;;;15.37;45.22266;924.649;;;;
2020/02/25 13:02:17;;;;;;;5.3;2.5;;;;;;;15.3;44.12988;924.6561;;;;
2020/02/25 13:04:42;;;;;;;8.4;2.8;;;;;;;15.43;44.57031;924.6298;;;;
2020/02/25 13:07:07;;;;;;;8.1;2.6;;;;;;;15.33;43.50977;924.6054;;;;
2020/02/25 13:09:33;;;;;;;4.2;2.5;;;;;;;15.21;43.75195;924.4572;;;;
2020/02/25 13:11:58;;;;;;;5.7;2.2;;;;;;;15.14;44.35645;924.3984;;;;
2020/02/25 13:14:24;;;;;;;5.1;2.3;;;;;;;15.09;44.19043;924.347;;;;
2020/02/25 13:16:49;;;;;;;4;2;;;;;;;15;44.03125;924.3244;;;;
2020/02/25 13:19:14;;;;;;;3.9;2;;;;;;;15.29;42.5127;924.2739;;;;
2020/02/25 13:21:39;;;;;;;4;1.9;;;;;;;15.43;42.67676;924.277;;;;
2020/02/25 13:24:04;;;;;;;3.4;1.6;;;;;;;15.74;41.37891;924.2883;;;;
2020/02/25 13:26:30;;;;;;;5.4;2.2;;;;;;;15.47;41.69922;924.282;;;;
2020/02/25 13:28:56;;;;;;;5;1.9;;;;;;;15.78;41.74023;924.2092;;;;
2020/02/25 13:31:22;;;;;;;3.5;1.8;;;;;;;16.01;40.09668;924.127;;;;
2020/02/25 13:33:47;;;;;;;5.4;1.7;;;;;;;16.06;38.79492;924.1135;;;;
2020/02/25 13:36:12;;;;;;;3.6;1.7;;;;;;;16.15;39.48535;924.1025;;;;
2020/02/25 13:38:37;;;;;;;2.8;1.8;;;;;;;16.21;38.7627;924.1348;;;;
2020/02/25 13:41:45;;;;;;;3.1;1.6;;;;;;;15.9;38.93164;924.2039;;;;
2020/02/25 13:44:10;;;;;;;2.8;1.8;;;;;;;15.8;40.05566;924.2131;;;;
2020/02/25 13:46:36;;;;;;;3.7;1.8;;;;;;;15.56;40.14844;924.1716;;;;
2020/02/25 13:49:01;;;;;;;3.2;1.8;;;;;;;15.46;40.2207;924.1644;;;;
2020/02/25 13:51:26;;;;;;;3.6;1.7;;;;;;;15.37;40.26953;924.0714;;;;
2020/02/25 13:53:51;;;;;;;2.7;1.5;;;;;;;15.23;42.10352;924.1033;;;;
2020/02/25 13:56:16;;;;;;;3.6;1.9;;;;;;;15.24;40.28027;924.075;;;;
2020/02/25 13:58:41;;;;;;;4.3;1.9;;;;;;;15.04;41.77344;924.0406;;;;
2020/02/25 14:01:06;;;;;;;4.9;2;;;;;;;14.87;41.06445;924.0144;;;;
2020/02/25 14:03:32;;;;;;;4.6;2.2;;;;;;;14.56;43.16797;924.0581;;;;
2020/02/25 14:05:57;;;;;;;2.6;2;;;;;;;14.56;42.07324;924.0411;;;;
2020/02/25 14:08:22;;;;;;;4.2;2;;;;;;;14.64;41.52734;923.9728;;;;
2020/02/25 14:10:47;;;;;;;3.4;2.1;;;;;;;14.6;41.65137;923.8989;;;;
2020/02/25 14:13:12;;;;;;;3.6;2;;;;;;;14.67;41.56445;923.8942;;;;
2020/02/25 14:15:37;;;;;;;4.3;2.1;;;;;;;14.66;42.98242;923.9648;;;;
2020/02/25 14:18:03;;;;;;;3.6;2.2;;;;;;;14.77;42.49707;923.9952;;;;
2020/02/25 14:20:28;;;;;;;9.1;2.3;;;;;;;14.5;42.83984;923.9542;;;;
2020/02/25 14:22:53;;;;;;;3.1;2.1;;;;;;;14.49;43.63379;924.0408;;;;
2020/02/25 14:25:19;;;;;;;11.8;2.4;;;;;;;14.57;43.31934;924.0345;;;;
2020/02/25 14:27:44;;;;;;;4.2;2.5;;;;;;;14.69;43.23828;924.0193;;;;
2020/02/25 14:30:09;;;;;;;3.5;2.4;;;;;;;14.5;43.62305;923.991;;;;
2020/02/25 14:32:34;;;;;;;3.5;2.3;;;;;;;14.23;44.37891;924.0154;;;;
2020/02/25 14:34:59;;;;;;;4.1;2.9;;;;;;;14.42;44.26074;923.9944;;;;
2020/02/25 14:37:24;;;;;;;5.2;2.8;;;;;;;14.64;43.91406;924.0072;;;;
2020/02/25 14:39:49;;;;;;;4.1;2.9;;;;;;;14.9;42.68359;924.0405;;;;
2020/02/25 14:42:26;;;;;;;6.1;3.1;;;;;;;14.77;43.13086;924.0723;;;;
2020/02/25 14:44:40;;;;;;;6.2;3;;;;;;;14.84;42.64258;923.9984;;;;
2020/02/25 14:47:05;;;;;;;4;2.8;;;;;;;14.56;43.61816;923.9818;;;;
2020/02/25 14:49:31;;;;;;;5.7;3.2;;;;;;;14.08;45.01953;924.0193;;;;
2020/02/25 14:51:56;;;;;;;4.4;2.9;;;;;;;13.78;43.89648;923.9833;;;;
2020/02/25 14:54:21;;;;;;;5;2.8;;;;;;;13.46;44.49609;924.0632;;;;
2020/02/25 14:56:46;;;;;;;6.3;3;;;;;;;13.5;45.6377;924.0382;;;;
2020/02/25 14:59:11;;;;;;;5.2;3.1;;;;;;;13.36;46.43945;924.0269;;;;
2020/02/25 15:01:37;;;;;;;5.9;3;;;;;;;13.35;45.55371;924.0144;;;;
2020/02/25 15:04:02;;;;;;;6.4;3.2;;;;;;;13.29;46.17969;924.0165;;;;
2020/02/25 15:06:27;;;;;;;4.4;2.9;;;;;;;13.38;46.08594;924.0095;;;;
2020/02/25 15:08:52;;;;;;;5.4;3.2;;;;;;;13.3;46.1123;924.0044;;;;
2020/02/25 15:11:17;;;;;;;5.6;3.3;;;;;;;13.36;46.20996;924.0175;;;;
2020/02/25 15:13:42;;;;;;;5.9;3.3;;;;;;;13.24;46.70215;924.0403;;;;
2020/02/25 15:16:07;;;;;;;4.4;3.1;;;;;;;13.16;47.12988;924.0976;;;;
2020/02/25 15:18:32;;;;;;;5.3;3.3;;;;;;;13.18;46.69629;923.9942;;;;
2020/02/25 15:20:58;;;;;;;6.1;3.1;;;;;;;13.12;46.98828;923.9963;;;;
2020/02/25 15:23:24;;;;;;;7.6;3;;;;;;;13.16;47.06152;923.9703;;;;
2020/02/25 15:25:49;;;;;;;6.3;3.2;;;;;;;13.28;47.0293;923.9928;;;;
2020/02/25 15:28:14;;;;;;;6.1;3.4;;;;;;;13.31;45.85938;923.9523;;;;
2020/02/25 15:30:39;;;;;;;4.3;3.2;;;;;;;13.45;47.12793;923.9363;;;;
2020/02/25 15:33:04;;;;;;;6.1;3.7;;;;;;;12.92;48.05762;924.0021;;;;
2020/02/25 15:35:29;;;;;;;6.8;3.6;;;;;;;12.82;48.79297;923.9915;;;;